sensor_id;sensor_type;location;lat;lon;timestamp;pressure;altitude;pressure_sealevel;temperature;humidity
27864;BME280;15980;51.092;13.916;2022-11-09T00:02:09;98336.69;;;10.14;85.04
27864;BME280;15980;51.092;13.916;2022-11-09T00:07:14;98346.53;;;10.03;84.08
27864;BME280;15980;51.092;13.916;2022-11-09T00:12:19;98343.78;;;9.91;85.80
27864;BME280;15980;51.092;13.916;2022-11-09T00:17:26;98337.06;;;9.88;84.81
27864;BME280;15980;51.092;13.916;2022-11-09T00:22:31;98349.06;;;9.84;84.60
27864;BME280;15980;51.092;13.916;2022-11-09T00:27:36;98350.66;;;9.85;84.88
27864;BME280;15980;51.092;13.916;2022-11-09T00:32:44;98353.50;;;9.88;84.93
27864;BME280;15980;51.092;13.916;2022-11-09T00:37:48;98363.44;;;9.93;85.01
27864;BME280;15980;51.092;13.916;2022-11-09T00:42:53;98356.94;;;9.97;84.13
27864;BME280;15980;51.092;13.916;2022-11-09T00:48:00;98369.03;;;9.96;83.94
27864;BME280;15980;51.092;13.916;2022-11-09T00:53:05;98364.47;;;9.88;83.63
27864;BME280;15980;51.092;13.916;2022-11-09T00:58:09;98367.34;;;9.80;84.50
27864;BME280;15980;51.092;13.916;2022-11-09T01:03:17;98361.75;;;9.76;84.50
27864;BME280;15980;51.092;13.916;2022-11-09T01:08:22;98353.41;;;9.72;84.33
27864;BME280;15980;51.092;13.916;2022-11-09T01:13:27;98357.28;;;9.71;84.37
27864;BME280;15980;51.092;13.916;2022-11-09T01:18:34;98354.56;;;9.71;84.43
27864;BME280;15980;51.092;13.916;2022-11-09T01:23:39;98345.66;;;9.62;84.60
27864;BME280;15980;51.092;13.916;2022-11-09T01:28:44;98356.72;;;9.66;84.01
27864;BME280;15980;51.092;13.916;2022-11-09T01:33:51;98347.13;;;9.60;83.90
27864;BME280;15980;51.092;13.916;2022-11-09T01:38:56;98353.28;;;9.44;84.00
27864;BME280;15980;51.092;13.916;2022-11-09T01:44:09;98356.59;;;9.50;83.61
27864;BME280;15980;51.092;13.916;2022-11-09T01:49:21;98356.47;;;9.47;84.11
27864;BME280;15980;51.092;13.916;2022-11-09T01:54:28;98341.84;;;9.42;84.76
27864;BME280;15980;51.092;13.916;2022-11-09T01:59:39;98337.97;;;9.43;84.17
27864;BME280;15980;51.092;13.916;2022-11-09T02:04:56;98346.09;;;9.52;83.64
27864;BME280;15980;51.092;13.916;2022-11-09T02:10:06;98345.97;;;9.49;83.94
27864;BME280;15980;51.092;13.916;2022-11-09T02:15:12;98346.31;;;9.47;83.96
27864;BME280;15980;51.092;13.916;2022-11-09T02:20:20;98345.50;;;9.34;84.15
27864;BME280;15980;51.092;13.916;2022-11-09T02:25:25;98345.50;;;9.47;84.26
27864;BME280;15980;51.092;13.916;2022-11-09T02:30:31;98339.47;;;9.41;84.07
27864;BME280;15980;51.092;13.916;2022-11-09T02:35:39;98333.19;;;9.40;83.89
27864;BME280;15980;51.092;13.916;2022-11-09T02:40:47;98329.19;;;9.50;84.33
27864;BME280;15980;51.092;13.916;2022-11-09T02:45:53;98332.03;;;9.41;84.28
27864;BME280;15980;51.092;13.916;2022-11-09T02:51:00;98322.25;;;9.40;84.29
27864;BME280;15980;51.092;13.916;2022-11-09T02:56:05;98321.88;;;9.30;84.84
27864;BME280;15980;51.092;13.916;2022-11-09T03:01:10;98318.69;;;9.16;85.72
27864;BME280;15980;51.092;13.916;2022-11-09T03:06:17;98314.81;;;9.17;85.63
27864;BME280;15980;51.092;13.916;2022-11-09T03:11:35;98314.53;;;9.09;85.71
27864;BME280;15980;51.092;13.916;2022-11-09T03:16:39;98306.91;;;9.03;86.30
27864;BME280;15980;51.092;13.916;2022-11-09T03:21:49;98308.50;;;9.04;85.68
27864;BME280;15980;51.092;13.916;2022-11-09T03:26:54;98315.09;;;9.03;86.57
27864;BME280;15980;51.092;13.916;2022-11-09T03:31:58;98314.09;;;9.07;86.31
27864;BME280;15980;51.092;13.916;2022-11-09T03:37:06;98317.03;;;9.02;85.83
27864;BME280;15980;51.092;13.916;2022-11-09T03:42:10;98320.56;;;8.91;86.81
27864;BME280;15980;51.092;13.916;2022-11-09T03:47:15;98320.09;;;8.89;86.52
27864;BME280;15980;51.092;13.916;2022-11-09T03:52:22;98312.13;;;8.96;86.83
27864;BME280;15980;51.092;13.916;2022-11-09T03:57:27;98315.75;;;8.75;87.30
27864;BME280;15980;51.092;13.916;2022-11-09T04:02:32;98330.56;;;8.74;87.42
27864;BME280;15980;51.092;13.916;2022-11-09T04:07:39;98331.56;;;8.70;87.85
27864;BME280;15980;51.092;13.916;2022-11-09T04:12:44;98332.06;;;8.84;86.82
27864;BME280;15980;51.092;13.916;2022-11-09T04:17:56;98315.53;;;8.80;86.53
27864;BME280;15980;51.092;13.916;2022-11-09T04:23:04;98315.50;;;8.68;86.40
27864;BME280;15980;51.092;13.916;2022-11-09T04:28:10;98312.94;;;8.63;88.39
27864;BME280;15980;51.092;13.916;2022-11-09T04:33:15;98302.09;;;8.55;88.96
27864;BME280;15980;51.092;13.916;2022-11-09T04:38:23;98306.72;;;8.42;90.47
27864;BME280;15980;51.092;13.916;2022-11-09T04:43:27;98314.91;;;8.42;89.47
27864;BME280;15980;51.092;13.916;2022-11-09T04:48:32;98322.19;;;8.38;89.75
27864;BME280;15980;51.092;13.916;2022-11-09T04:53:40;98328.25;;;8.43;88.98
27864;BME280;15980;51.092;13.916;2022-11-09T04:58:44;98327.03;;;8.53;89.17
27864;BME280;15980;51.092;13.916;2022-11-09T05:03:50;98323.09;;;8.63;88.59
27864;BME280;15980;51.092;13.916;2022-11-09T05:08:58;98328.03;;;8.69;88.54
27864;BME280;15980;51.092;13.916;2022-11-09T05:14:03;98315.28;;;8.73;87.70
27864;BME280;15980;51.092;13.916;2022-11-09T05:19:08;98326.94;;;8.62;88.09
27864;BME280;15980;51.092;13.916;2022-11-09T05:24:15;98330.34;;;8.79;86.98
27864;BME280;15980;51.092;13.916;2022-11-09T05:29:20;98335.25;;;8.86;86.65
27864;BME280;15980;51.092;13.916;2022-11-09T05:34:24;98337.91;;;9.07;86.06
27864;BME280;15980;51.092;13.916;2022-11-09T05:39:32;98349.75;;;8.99;86.04
27864;BME280;15980;51.092;13.916;2022-11-09T05:44:36;98353.66;;;9.10;86.03
27864;BME280;15980;51.092;13.916;2022-11-09T05:49:41;98350.06;;;9.18;85.14
27864;BME280;15980;51.092;13.916;2022-11-09T05:54:48;98365.34;;;9.19;84.58
27864;BME280;15980;51.092;13.916;2022-11-09T05:59:53;98380.28;;;9.22;83.34
27864;BME280;15980;51.092;13.916;2022-11-09T06:04:57;98391.34;;;9.25;84.25
27864;BME280;15980;51.092;13.916;2022-11-09T06:10:06;98387.91;;;9.16;84.00
27864;BME280;15980;51.092;13.916;2022-11-09T06:15:11;98380.66;;;9.32;84.05
27864;BME280;15980;51.092;13.916;2022-11-09T06:20:19;98376.41;;;9.23;84.44
27864;BME280;15980;51.092;13.916;2022-11-09T06:25:27;98378.84;;;9.03;84.26
27864;BME280;15980;51.092;13.916;2022-11-09T06:30:32;98382.72;;;9.02;84.64
27864;BME280;15980;51.092;13.916;2022-11-09T06:35:36;98381.44;;;8.88;85.44
27864;BME280;15980;51.092;13.916;2022-11-09T06:40:44;98387.72;;;9.00;85.35
27864;BME280;15980;51.092;13.916;2022-11-09T06:45:49;98384.59;;;9.10;86.25
27864;BME280;15980;51.092;13.916;2022-11-09T06:50:53;98391.34;;;9.25;84.68
27864;BME280;15980;51.092;13.916;2022-11-09T06:56:06;98385.69;;;9.09;85.01
27864;BME280;15980;51.092;13.916;2022-11-09T07:01:12;98384.97;;;9.21;85.79
27864;BME280;15980;51.092;13.916;2022-11-09T07:06:17;98398.66;;;9.21;85.24
27864;BME280;15980;51.092;13.916;2022-11-09T07:11:24;98403.25;;;9.41;83.71
27864;BME280;15980;51.092;13.916;2022-11-09T07:16:30;98418.09;;;9.53;83.26
27864;BME280;15980;51.092;13.916;2022-11-09T07:21:34;98397.69;;;9.62;83.75
27864;BME280;15980;51.092;13.916;2022-11-09T07:26:41;98407.19;;;9.77;82.57
27864;BME280;15980;51.092;13.916;2022-11-09T07:31:46;98409.91;;;9.65;82.54
27864;BME280;15980;51.092;13.916;2022-11-09T07:36:52;98405.91;;;9.74;82.92
27864;BME280;15980;51.092;13.916;2022-11-09T07:41:59;98416.31;;;9.93;83.12
27864;BME280;15980;51.092;13.916;2022-11-09T07:47:04;98433.00;;;10.00;82.38
27864;BME280;15980;51.092;13.916;2022-11-09T07:52:09;98435.28;;;10.23;81.27
27864;BME280;15980;51.092;13.916;2022-11-09T07:57:16;98427.84;;;10.35;80.43
27864;BME280;15980;51.092;13.916;2022-11-09T08:02:21;98419.06;;;10.30;78.79
27864;BME280;15980;51.092;13.916;2022-11-09T08:07:25;98418.03;;;10.34;79.58
27864;BME280;15980;51.092;13.916;2022-11-09T08:12:33;98426.28;;;10.22;79.66
27864;BME280;15980;51.092;13.916;2022-11-09T08:17:38;98442.00;;;10.50;79.19
27864;BME280;15980;51.092;13.916;2022-11-09T08:22:43;98430.31;;;10.65;79.12
27864;BME280;15980;51.092;13.916;2022-11-09T08:27:51;98434.72;;;10.29;79.70
27864;BME280;15980;51.092;13.916;2022-11-09T08:32:57;98445.06;;;10.60;77.88
27864;BME280;15980;51.092;13.916;2022-11-09T08:38:04;98443.19;;;10.24;79.08
27864;BME280;15980;51.092;13.916;2022-11-09T08:43:12;98429.44;;;10.12;78.48
27864;BME280;15980;51.092;13.916;2022-11-09T08:48:17;98433.22;;;10.32;78.81
27864;BME280;15980;51.092;13.916;2022-11-09T08:53:22;98439.19;;;10.22;79.23
27864;BME280;15980;51.092;13.916;2022-11-09T08:58:29;98450.81;;;10.43;78.32
27864;BME280;15980;51.092;13.916;2022-11-09T09:03:34;98437.78;;;10.52;79.85
27864;BME280;15980;51.092;13.916;2022-11-09T09:08:39;98444.38;;;10.63;78.67
27864;BME280;15980;51.092;13.916;2022-11-09T09:13:46;98451.41;;;10.89;78.29
27864;BME280;15980;51.092;13.916;2022-11-09T09:18:51;98451.31;;;11.13;76.75
27864;BME280;15980;51.092;13.916;2022-11-09T09:23:56;98446.69;;;11.45;74.83
27864;BME280;15980;51.092;13.916;2022-11-09T09:29:03;98460.44;;;11.61;74.01
27864;BME280;15980;51.092;13.916;2022-11-09T09:34:08;98471.63;;;11.52;73.43
27864;BME280;15980;51.092;13.916;2022-11-09T09:39:13;98470.28;;;11.62;74.01
27864;BME280;15980;51.092;13.916;2022-11-09T09:44:24;98463.16;;;11.29;75.45
27864;BME280;15980;51.092;13.916;2022-11-09T09:49:34;98465.47;;;11.15;75.29
27864;BME280;15980;51.092;13.916;2022-11-09T09:54:42;98456.16;;;11.04;75.83
27864;BME280;15980;51.092;13.916;2022-11-09T09:59:52;98451.06;;;11.18;75.26
27864;BME280;15980;51.092;13.916;2022-11-09T10:05:00;98453.00;;;11.18;76.40
27864;BME280;15980;51.092;13.916;2022-11-09T10:10:21;98438.72;;;11.56;75.49
27864;BME280;15980;51.092;13.916;2022-11-09T10:15:35;98445.00;;;11.41;73.97
27864;BME280;15980;51.092;13.916;2022-11-09T10:21:00;98426.94;;;11.12;77.38
27864;BME280;15980;51.092;13.916;2022-11-09T10:26:16;98430.09;;;10.98;78.18
27864;BME280;15980;51.092;13.916;2022-11-09T10:31:29;98414.78;;;10.97;78.87
27864;BME280;15980;51.092;13.916;2022-11-09T10:36:41;98418.41;;;11.01;79.21
27864;BME280;15980;51.092;13.916;2022-11-09T10:41:47;98404.53;;;10.82;79.73
27864;BME280;15980;51.092;13.916;2022-11-09T10:47:09;98391.72;;;10.86;79.64
27864;BME280;15980;51.092;13.916;2022-11-09T10:52:31;98393.53;;;10.94;80.05
27864;BME280;15980;51.092;13.916;2022-11-09T10:57:56;98400.50;;;10.91;79.53
27864;BME280;15980;51.092;13.916;2022-11-09T11:03:15;98397.88;;;10.95;81.31
27864;BME280;15980;51.092;13.916;2022-11-09T11:08:36;98402.78;;;11.17;80.38
27864;BME280;15980;51.092;13.916;2022-11-09T11:13:41;98382.34;;;11.46;81.59
27864;BME280;15980;51.092;13.916;2022-11-09T11:18:48;98395.66;;;11.44;79.27
27864;BME280;15980;51.092;13.916;2022-11-09T11:24:12;98390.44;;;11.55;78.73
27864;BME280;15980;51.092;13.916;2022-11-09T11:29:30;98383.94;;;11.63;78.05
27864;BME280;15980;51.092;13.916;2022-11-09T11:34:38;98385.28;;;11.69;77.56
27864;BME280;15980;51.092;13.916;2022-11-09T11:40:06;98381.06;;;11.72;77.35
27864;BME280;15980;51.092;13.916;2022-11-09T11:45:15;98381.91;;;11.60;76.43
27864;BME280;15980;51.092;13.916;2022-11-09T11:50:47;98383.94;;;11.63;78.04
27864;BME280;15980;51.092;13.916;2022-11-09T11:56:17;98371.41;;;11.78;76.64
27864;BME280;15980;51.092;13.916;2022-11-09T12:01:33;98367.59;;;11.82;76.17
27864;BME280;15980;51.092;13.916;2022-11-09T12:06:57;98361.53;;;11.45;76.83
27864;BME280;15980;51.092;13.916;2022-11-09T12:12:24;98353.47;;;11.37;77.11
27864;BME280;15980;51.092;13.916;2022-11-09T12:17:40;98358.78;;;11.29;75.93
27864;BME280;15980;51.092;13.916;2022-11-09T12:23:00;98345.78;;;10.98;77.47
27864;BME280;15980;51.092;13.916;2022-11-09T12:28:17;98348.34;;;10.91;77.88
27864;BME280;15980;51.092;13.916;2022-11-09T12:33:33;98346.22;;;10.85;78.28
27864;BME280;15980;51.092;13.916;2022-11-09T12:38:53;98344.59;;;10.84;78.61
27864;BME280;15980;51.092;13.916;2022-11-09T12:44:03;98346.56;;;10.55;78.87
27864;BME280;15980;51.092;13.916;2022-11-09T12:49:34;98336.31;;;10.40;79.54
27864;BME280;15980;51.092;13.916;2022-11-09T12:54:45;98342.31;;;10.58;79.89
27864;BME280;15980;51.092;13.916;2022-11-09T12:59:52;98350.19;;;10.59;78.57
27864;BME280;15980;51.092;13.916;2022-11-09T13:04:59;98353.59;;;10.96;78.00
27864;BME280;15980;51.092;13.916;2022-11-09T13:10:24;98372.03;;;11.12;77.89
27864;BME280;15980;51.092;13.916;2022-11-09T13:15:31;98378.41;;;11.16;76.50
27864;BME280;15980;51.092;13.916;2022-11-09T13:20:43;98381.44;;;11.26;76.42
27864;BME280;15980;51.092;13.916;2022-11-09T13:25:58;98353.09;;;11.22;77.32
27864;BME280;15980;51.092;13.916;2022-11-09T13:31:03;98369.34;;;11.27;76.68
27864;BME280;15980;51.092;13.916;2022-11-09T13:36:17;98366.81;;;11.22;76.92
27864;BME280;15980;51.092;13.916;2022-11-09T13:41:44;98366.72;;;11.19;75.95
27864;BME280;15980;51.092;13.916;2022-11-09T13:46:49;98372.34;;;10.94;76.25
27864;BME280;15980;51.092;13.916;2022-11-09T13:51:54;98376.00;;;10.98;76.85
27864;BME280;15980;51.092;13.916;2022-11-09T13:57:05;98379.34;;;10.92;76.66
27864;BME280;15980;51.092;13.916;2022-11-09T14:02:17;98373.31;;;10.86;76.80
27864;BME280;15980;51.092;13.916;2022-11-09T14:07:23;98383.13;;;10.59;77.29
27864;BME280;15980;51.092;13.916;2022-11-09T14:12:40;98378.81;;;10.46;78.41
27864;BME280;15980;51.092;13.916;2022-11-09T14:17:57;98381.25;;;10.23;78.95
27864;BME280;15980;51.092;13.916;2022-11-09T14:23:14;98390.59;;;10.34;78.54
27864;BME280;15980;51.092;13.916;2022-11-09T14:28:25;98396.66;;;10.28;79.81
27864;BME280;15980;51.092;13.916;2022-11-09T14:33:31;98402.16;;;10.03;80.42
27864;BME280;15980;51.092;13.916;2022-11-09T14:38:44;98397.69;;;9.74;80.68
27864;BME280;15980;51.092;13.916;2022-11-09T14:43:54;98394.72;;;9.80;81.80
27864;BME280;15980;51.092;13.916;2022-11-09T14:49:01;98405.34;;;9.69;80.61
27864;BME280;15980;51.092;13.916;2022-11-09T14:54:10;98404.19;;;9.58;81.69
27864;BME280;15980;51.092;13.916;2022-11-09T14:59:26;98410.44;;;9.46;82.89
27864;BME280;15980;51.092;13.916;2022-11-09T15:04:50;98413.75;;;9.39;82.81
27864;BME280;15980;51.092;13.916;2022-11-09T15:09:57;98404.91;;;9.22;83.48
27864;BME280;15980;51.092;13.916;2022-11-09T15:15:06;98410.69;;;9.08;84.91
27864;BME280;15980;51.092;13.916;2022-11-09T15:20:27;98414.63;;;8.98;85.04
27864;BME280;15980;51.092;13.916;2022-11-09T15:25:34;98426.25;;;8.95;85.81
27864;BME280;15980;51.092;13.916;2022-11-09T15:30:43;98425.19;;;8.88;86.53
27864;BME280;15980;51.092;13.916;2022-11-09T15:35:50;98427.22;;;8.78;86.66
27864;BME280;15980;51.092;13.916;2022-11-09T15:40:55;98423.44;;;8.71;87.01
27864;BME280;15980;51.092;13.916;2022-11-09T15:46:03;98427.75;;;8.72;86.93
27864;BME280;15980;51.092;13.916;2022-11-09T15:51:08;98436.97;;;8.67;87.65
27864;BME280;15980;51.092;13.916;2022-11-09T15:56:15;98442.75;;;8.66;88.33
27864;BME280;15980;51.092;13.916;2022-11-09T16:01:23;98446.25;;;8.75;87.16
27864;BME280;15980;51.092;13.916;2022-11-09T16:06:28;98447.16;;;8.79;87.16
27864;BME280;15980;51.092;13.916;2022-11-09T16:11:33;98459.16;;;8.87;87.29
27864;BME280;15980;51.092;13.916;2022-11-09T16:16:41;98471.16;;;8.94;86.42
27864;BME280;15980;51.092;13.916;2022-11-09T16:21:46;98484.44;;;9.04;86.43
27864;BME280;15980;51.092;13.916;2022-11-09T16:26:52;98475.84;;;9.15;86.41
27864;BME280;15980;51.092;13.916;2022-11-09T16:32:00;98481.09;;;9.20;86.38
27864;BME280;15980;51.092;13.916;2022-11-09T16:37:05;98494.97;;;9.35;85.80
27864;BME280;15980;51.092;13.916;2022-11-09T16:42:10;98486.53;;;9.40;85.20
27864;BME280;15980;51.092;13.916;2022-11-09T16:47:20;98493.72;;;9.45;84.81
27864;BME280;15980;51.092;13.916;2022-11-09T16:52:25;98492.59;;;9.46;84.94
27864;BME280;15980;51.092;13.916;2022-11-09T16:57:29;98493.97;;;9.52;84.86
27864;BME280;15980;51.092;13.916;2022-11-09T17:02:37;98486.72;;;9.56;84.98
27864;BME280;15980;51.092;13.916;2022-11-09T17:07:42;98505.66;;;9.61;85.21
27864;BME280;15980;51.092;13.916;2022-11-09T17:12:47;98506.03;;;9.72;84.76
27864;BME280;15980;51.092;13.916;2022-11-09T17:17:54;98507.28;;;9.74;84.31
27864;BME280;15980;51.092;13.916;2022-11-09T17:22:59;98511.25;;;9.65;84.07
27864;BME280;15980;51.092;13.916;2022-11-09T17:28:04;98511.59;;;9.63;84.76
27864;BME280;15980;51.092;13.916;2022-11-09T17:33:11;98507.47;;;9.57;84.59
27864;BME280;15980;51.092;13.916;2022-11-09T17:38:16;98503.97;;;9.69;85.00
27864;BME280;15980;51.092;13.916;2022-11-09T17:43:21;98517.34;;;9.70;85.08
27864;BME280;15980;51.092;13.916;2022-11-09T17:48:29;98513.22;;;9.64;85.47
27864;BME280;15980;51.092;13.916;2022-11-09T17:53:33;98501.44;;;9.64;85.93
27864;BME280;15980;51.092;13.916;2022-11-09T17:58:40;98512.31;;;9.72;86.00
27864;BME280;15980;51.092;13.916;2022-11-09T18:03:48;98516.66;;;9.73;85.59
27864;BME280;15980;51.092;13.916;2022-11-09T18:08:52;98515.59;;;9.66;86.38
27864;BME280;15980;51.092;13.916;2022-11-09T18:14:11;98532.28;;;9.73;86.32
27864;BME280;15980;51.092;13.916;2022-11-09T18:19:20;98523.28;;;9.72;86.91
27864;BME280;15980;51.092;13.916;2022-11-09T18:24:25;98529.22;;;9.74;86.28
27864;BME280;15980;51.092;13.916;2022-11-09T18:29:30;98531.16;;;9.86;86.42
27864;BME280;15980;51.092;13.916;2022-11-09T18:34:38;98520.56;;;9.85;85.90
27864;BME280;15980;51.092;13.916;2022-11-09T18:39:43;98520.56;;;9.85;86.47
27864;BME280;15980;51.092;13.916;2022-11-09T18:44:47;98524.09;;;9.85;85.83
27864;BME280;15980;51.092;13.916;2022-11-09T18:49:55;98527.53;;;9.94;86.07
27864;BME280;15980;51.092;13.916;2022-11-09T18:55:00;98522.78;;;10.03;85.69
27864;BME280;15980;51.092;13.916;2022-11-09T19:00:07;98526.53;;;10.11;85.72
27864;BME280;15980;51.092;13.916;2022-11-09T19:05:14;98531.47;;;10.18;85.83
27864;BME280;15980;51.092;13.916;2022-11-09T19:10:19;98540.41;;;10.27;86.33
27864;BME280;15980;51.092;13.916;2022-11-09T19:15:24;98546.91;;;10.34;85.69
27864;BME280;15980;51.092;13.916;2022-11-09T19:20:32;98551.59;;;10.34;85.94
27864;BME280;15980;51.092;13.916;2022-11-09T19:25:37;98557.34;;;10.41;85.90
27864;BME280;15980;51.092;13.916;2022-11-09T19:30:42;98564.50;;;10.33;86.19
27864;BME280;15980;51.092;13.916;2022-11-09T19:35:52;98574.72;;;10.45;86.74
27864;BME280;15980;51.092;13.916;2022-11-09T19:41:16;98575.75;;;10.41;87.86
27864;BME280;15980;51.092;13.916;2022-11-09T19:46:21;98571.25;;;10.36;88.64
27864;BME280;15980;51.092;13.916;2022-11-09T19:51:28;98571.38;;;10.39;87.95
27864;BME280;15980;51.092;13.916;2022-11-09T19:56:33;98572.50;;;10.38;88.82
27864;BME280;15980;51.092;13.916;2022-11-09T20:01:39;98570.56;;;10.39;88.73
27864;BME280;15980;51.092;13.916;2022-11-09T20:06:47;98580.63;;;10.35;89.79
27864;BME280;15980;51.092;13.916;2022-11-09T20:11:52;98580.28;;;10.36;90.19
27864;BME280;15980;51.092;13.916;2022-11-09T20:17:09;98583.81;;;10.37;90.44
27864;BME280;15980;51.092;13.916;2022-11-09T20:22:17;98580.09;;;10.42;90.41
27864;BME280;15980;51.092;13.916;2022-11-09T20:27:22;98581.78;;;10.34;90.10
27864;BME280;15980;51.092;13.916;2022-11-09T20:32:30;98584.97;;;10.36;91.00
27864;BME280;15980;51.092;13.916;2022-11-09T20:37:37;98586.03;;;10.44;91.71
27864;BME280;15980;51.092;13.916;2022-11-09T20:42:42;98588.78;;;10.44;91.43
27864;BME280;15980;51.092;13.916;2022-11-09T20:47:47;98584.53;;;10.46;92.05
27864;BME280;15980;51.092;13.916;2022-11-09T20:53:08;98594.50;;;10.51;91.98
27864;BME280;15980;51.092;13.916;2022-11-09T21:04:05;98601.69;;;10.55;91.67
27864;BME280;15980;51.092;13.916;2022-11-09T21:09:13;98604.88;;;10.57;92.15
27864;BME280;15980;51.092;13.916;2022-11-09T21:14:17;98606.25;;;10.63;92.04
27864;BME280;15980;51.092;13.916;2022-11-09T21:19:22;98607.63;;;10.57;92.08
27864;BME280;15980;51.092;13.916;2022-11-09T21:24:29;98620.88;;;10.67;92.81
27864;BME280;15980;51.092;13.916;2022-11-09T21:29:47;98613.00;;;10.66;93.43
27864;BME280;15980;51.092;13.916;2022-11-09T21:34:54;98638.28;;;10.72;92.44
27864;BME280;15980;51.092;13.916;2022-11-09T21:40:02;98630.16;;;10.63;93.07
27864;BME280;15980;51.092;13.916;2022-11-09T21:45:08;98631.63;;;10.60;93.36
27864;BME280;15980;51.092;13.916;2022-11-09T21:50:13;98632.44;;;10.61;94.61
27864;BME280;15980;51.092;13.916;2022-11-09T21:55:20;98623.06;;;10.62;93.91
27864;BME280;15980;51.092;13.916;2022-11-09T22:00:25;98632.78;;;10.59;95.05
27864;BME280;15980;51.092;13.916;2022-11-09T22:05:30;98639.06;;;10.60;95.82
27864;BME280;15980;51.092;13.916;2022-11-09T22:10:38;98639.19;;;10.63;95.39
27864;BME280;15980;51.092;13.916;2022-11-09T22:15:42;98651.06;;;10.67;95.40
27864;BME280;15980;51.092;13.916;2022-11-09T22:21:00;98662.97;;;10.72;95.48
27864;BME280;15980;51.092;13.916;2022-11-09T22:26:07;98659.09;;;10.73;95.29
27864;BME280;15980;51.092;13.916;2022-11-09T22:31:12;98664.00;;;10.67;96.17
27864;BME280;15980;51.092;13.916;2022-11-09T22:36:17;98669.59;;;10.70;96.10
27864;BME280;15980;51.092;13.916;2022-11-09T22:41:26;98675.66;;;10.76;95.99
27864;BME280;15980;51.092;13.916;2022-11-09T22:46:31;98657.84;;;10.94;97.67
27864;BME280;15980;51.092;13.916;2022-11-09T22:51:36;98652.34;;;11.07;97.65
27864;BME280;15980;51.092;13.916;2022-11-09T22:56:43;98669.72;;;11.11;97.19
27864;BME280;15980;51.092;13.916;2022-11-09T23:01:48;98660.69;;;11.10;96.57
27864;BME280;15980;51.092;13.916;2022-11-09T23:06:53;98669.41;;;11.00;96.59
27864;BME280;15980;51.092;13.916;2022-11-09T23:12:00;98677.53;;;10.96;95.89
27864;BME280;15980;51.092;13.916;2022-11-09T23:17:05;98677.41;;;10.93;96.51
27864;BME280;15980;51.092;13.916;2022-11-09T23:22:31;98671.19;;;10.84;95.56
27864;BME280;15980;51.092;13.916;2022-11-09T23:27:38;98682.41;;;10.79;96.13
27864;BME280;15980;51.092;13.916;2022-11-09T23:32:43;98677.50;;;10.72;96.16
27864;BME280;15980;51.092;13.916;2022-11-09T23:37:56;98697.84;;;10.71;96.36
27864;BME280;15980;51.092;13.916;2022-11-09T23:43:07;98700.25;;;10.73;96.45
27864;BME280;15980;51.092;13.916;2022-11-09T23:48:14;98703.00;;;10.73;96.01
27864;BME280;15980;51.092;13.916;2022-11-09T23:53:19;98710.53;;;10.76;96.09
27864;BME280;15980;51.092;13.916;2022-11-09T23:58:27;98726.09;;;10.72;95.29
